Time;durP1;ratioP1;P1;durP2;ratioP2;P2;SDS_P1;SDS_P2;PMS_P1;PMS_P2;Temp;Humidity;BMP_temperature;BMP_pressure;BME280_temperature;BME280_humidity;BME280_pressure;Samples;Min_cycle;Max_cycle;Signal;HPM_P1;HPM_P2
2023/05/29 00:02:27;;;;;;;;;9.00;8.60;;;;;17.84;49.88;98928.16;7696275;22;96881;-62
2023/05/29 00:05:31;;;;;;;;;8.20;7.20;;;;;17.86;50.03;98929.53;7671622;22;96563;-62
2023/05/29 00:08:35;;;;;;;;;9.50;9.00;;;;;17.71;50.90;98934.91;7671275;22;96610;-62
2023/05/29 00:11:38;;;;;;;;;10.00;9.40;;;;;17.62;51.26;98934.63;7697899;22;96187;-62
2023/05/29 00:14:41;;;;;;;;;10.50;8.00;;;;;17.47;51.65;98911.88;7697035;22;96239;-62
2023/05/29 00:17:46;;;;;;;;;9.00;7.60;;;;;17.48;52.11;98921.72;7696915;22;98936;-62
2023/05/29 00:20:49;;;;;;;;;8.00;8.00;;;;;17.45;51.98;98924.94;7699164;22;96246;-62
2023/05/29 00:23:53;;;;;;;;;9.00;9.00;;;;;17.38;52.65;98921.66;7699601;22;96364;-62
2023/05/29 00:26:56;;;;;;;;;11.00;10.00;;;;;17.34;52.63;98918.66;7698769;22;96240;-62
2023/05/29 00:30:00;;;;;;;;;11.00;10.00;;;;;17.31;52.62;98925.44;7670125;22;98334;-62
2023/05/29 00:33:05;;;;;;;;;11.00;10.00;;;;;17.23;52.73;98925.94;7697322;22;96446;-62
2023/05/29 00:36:10;;;;;;;;;10.40;9.00;;;;;17.18;52.95;98923.19;7698458;22;96287;-62
2023/05/29 00:39:13;;;;;;;;;10.60;10.60;;;;;17.17;53.08;98915.28;7698796;22;96317;-62
2023/05/29 00:42:17;;;;;;;;;9.00;8.00;;;;;17.13;53.40;98923.16;7696475;22;98479;-63
2023/05/29 00:45:20;;;;;;;;;9.25;8.50;;;;;17.05;53.37;98923.66;7698733;22;96212;-62
2023/05/29 00:48:26;;;;;;;;;9.25;9.00;;;;;17.02;53.70;98924.16;7696993;22;96411;-62
2023/05/29 00:51:31;;;;;;;;;9.00;9.00;;;;;16.98;53.91;98924.97;7671486;22;96626;-62
2023/05/29 00:54:36;;;;;;;;;7.75;7.00;;;;;16.86;53.87;98908.78;7696937;22;96279;-62
2023/05/29 00:57:39;;;;;;;;;11.00;10.40;;;;;16.87;54.13;98916.72;7695927;22;99742;-62
2023/05/29 01:00:43;;;;;;;;;11.60;11.00;;;;;16.79;54.76;98910.94;7696581;22;96808;-62
2023/05/29 01:03:49;;;;;;;;;11.00;9.40;;;;;16.73;54.62;98906.53;7696800;22;96590;-62
2023/05/29 01:06:52;;;;;;;;;9.00;8.60;;;;;16.71;54.77;98914.16;7698873;22;97445;-62
2023/05/29 01:09:56;;;;;;;;;7.80;7.00;;;;;16.67;54.94;98904.84;7698422;22;96504;-63
2023/05/29 01:13:07;;;;;;;;;10.00;9.00;;;;;16.62;55.12;98911.06;7670751;22;96779;-62
2023/05/29 01:16:18;;;;;;;;;11.60;8.00;;;;;16.52;55.23;98912.88;7698408;22;96249;-62
2023/05/29 01:19:55;;;;;;;;;10.40;9.20;;;;;16.48;55.15;98904.41;7670057;22;98384;-62
2023/05/29 01:23:09;;;;;;;;;8.00;7.20;;;;;16.41;55.42;98901.91;7696829;22;96778;-62
2023/05/29 01:26:26;;;;;;;;;12.00;10.00;;;;;16.43;55.07;98909.78;7670779;22;96684;-62
2023/05/29 01:29:34;;;;;;;;;9.75;8.00;;;;;16.44;55.29;98911.44;7699174;22;96171;-62
2023/05/29 01:32:39;;;;;;;;;8.20;8.00;;;;;16.44;55.12;98906.81;7696958;22;96355;-62
2023/05/29 01:35:42;;;;;;;;;8.00;8.00;;;;;16.40;55.32;98908.44;7699182;22;96141;-62
2023/05/29 01:38:46;;;;;;;;;7.60;7.00;;;;;16.31;55.42;98890.94;7695335;22;96638;-62
2023/05/29 01:41:50;;;;;;;;;7.00;7.00;;;;;16.37;55.50;98905.41;7697301;22;96458;-62
2023/05/29 01:44:56;;;;;;;;;7.00;7.00;;;;;16.36;55.27;98901.03;7697149;22;96374;-62
2023/05/29 01:47:59;;;;;;;;;9.00;8.00;;;;;16.33;55.32;98896.09;7670778;22;98312;-62
2023/05/29 01:51:04;;;;;;;;;8.80;8.20;;;;;16.34;55.50;98895.84;7696598;22;98372;-62
2023/05/29 01:54:08;;;;;;;;;10.00;9.67;;;;;16.23;55.11;98874.25;7696322;22;96277;-63
2023/05/29 01:57:12;;;;;;;;;9.80;8.80;;;;;16.32;55.08;98894.47;7697693;22;96180;-62
2023/05/29 02:00:18;;;;;;;;;10.20;9.00;;;;;16.30;55.54;98892.00;7696714;22;96508;-62
2023/05/29 02:03:23;;;;;;;;;7.80;7.80;;;;;16.26;55.67;98909.09;7696292;22;97514;-62
2023/05/29 02:06:27;;;;;;;;;9.00;8.60;;;;;16.19;55.66;98890.25;7698257;22;96851;-62
2023/05/29 02:09:30;;;;;;;;;8.50;7.50;;;;;16.20;55.90;98900.06;7670953;22;96597;-62
2023/05/29 02:12:34;;;;;;;;;9.00;8.00;;;;;16.15;55.87;98894.59;7697310;22;96322;-62
2023/05/29 02:15:39;;;;;;;;;6.20;5.80;;;;;16.12;55.56;98899.72;7698862;22;96219;-62
2023/05/29 02:18:43;;;;;;;;;8.40;8.00;;;;;15.95;55.75;98881.59;7698515;22;96292;-62
2023/05/29 02:21:48;;;;;;;;;9.00;6.40;;;;;16.04;55.79;98898.28;7696965;22;96408;-63
2023/05/29 02:24:52;;;;;;;;;8.00;7.00;;;;;16.01;56.00;98896.06;7697468;22;96631;-62
2023/05/29 02:27:55;;;;;;;;;8.00;7.60;;;;;16.01;56.19;98890.63;7698433;22;96340;-62
2023/05/29 02:30:59;;;;;;;;;7.00;5.00;;;;;15.99;56.15;98884.63;7698966;22;96327;-63
2023/05/29 02:34:03;;;;;;;;;8.00;6.75;;;;;15.99;55.75;98881.91;7699017;22;96339;-62
2023/05/29 02:37:06;;;;;;;;;8.00;8.00;;;;;15.96;55.96;98879.72;7700084;22;96638;-62
2023/05/29 02:40:10;;;;;;;;;7.00;7.00;;;;;15.93;56.36;98889.19;7698103;22;99614;-63
2023/05/29 02:43:14;;;;;;;;;7.20;7.00;;;;;15.90;56.15;98886.16;7700281;22;96259;-63
2023/05/29 02:46:19;;;;;;;;;7.00;7.00;;;;;15.89;56.41;98893.50;7698846;22;96527;-62
2023/05/29 02:49:24;;;;;;;;;6.20;6.20;;;;;15.86;56.59;98890.47;7698581;22;97001;-62
2023/05/29 02:52:28;;;;;;;;;6.00;5.00;;;;;15.84;56.66;98884.47;7697744;22;98281;-62
2023/05/29 02:55:35;;;;;;;;;6.00;6.00;;;;;15.82;56.47;98886.63;7697387;22;96591;-62
2023/05/29 02:58:39;;;;;;;;;9.00;8.00;;;;;15.79;56.33;98889.84;7698792;22;96416;-62
2023/05/29 03:01:45;;;;;;;;;9.00;8.60;;;;;15.75;56.99;98884.09;7696190;22;96273;-62
2023/05/29 03:04:50;;;;;;;;;10.00;8.60;;;;;15.75;57.56;98880.56;7698506;22;96247;-63
2023/05/29 03:07:53;;;;;;;;;9.60;9.40;;;;;15.74;57.37;98882.47;7697499;22;98327;-62
2023/05/29 03:10:56;;;;;;;;;7.00;6.00;;;;;15.79;57.21;98892.56;7699898;22;96199;-62
2023/05/29 03:14:00;;;;;;;;;8.00;8.00;;;;;15.83;57.34;98885.56;7696965;22;96568;-62
2023/05/29 03:17:06;;;;;;;;;8.00;8.00;;;;;15.83;57.44;98888.28;7673036;22;98772;-63
2023/05/29 03:20:11;;;;;;;;;9.00;9.00;;;;;15.73;57.55;98872.69;7697351;22;97760;-63
2023/05/29 03:23:14;;;;;;;;;9.20;9.20;;;;;15.78;57.39;98888.22;7697973;22;96764;-62
2023/05/29 03:26:18;;;;;;;;;10.00;10.00;;;;;15.80;57.80;98895.03;7698969;22;96335;-63
2023/05/29 03:29:24;;;;;;;;;13.00;10.40;;;;;15.79;58.69;98889.84;7697896;22;96259;-62
2023/05/29 03:32:30;;;;;;;;;11.00;11.00;;;;;15.77;58.51;98892.00;7670962;22;96786;-62
2023/05/29 03:35:34;;;;;;;;;12.00;11.00;;;;;15.75;58.93;98894.97;7697278;22;96197;-63
2023/05/29 03:38:38;;;;;;;;;12.00;11.00;;;;;15.70;59.10;98894.91;7696459;22;96420;-62
2023/05/29 03:41:41;;;;;;;;;10.40;10.00;;;;;15.62;58.97;98897.28;7696346;22;96634;-62
2023/05/29 03:44:45;;;;;;;;;9.80;8.80;;;;;15.64;59.09;98900.56;7669458;22;99120;-62
2023/05/29 03:47:50;;;;;;;;;11.00;10.00;;;;;15.69;59.05;98896.00;7671445;22;98833;-62
2023/05/29 03:50:54;;;;;;;;;10.20;9.00;;;;;15.69;58.88;98896.00;7699209;22;96845;-62
2023/05/29 03:54:04;;;;;;;;;8.75;8.00;;;;;15.73;58.87;98896.31;7697300;22;97442;-63
2023/05/29 03:57:09;;;;;;;;;8.00;8.00;;;;;15.83;58.68;98904.59;7696740;22;96213;-62
2023/05/29 04:00:13;;;;;;;;;11.00;10.00;;;;;15.93;58.43;98899.28;7696895;22;96286;-62
2023/05/29 04:03:17;;;;;;;;;12.00;10.00;;;;;16.04;58.10;98901.00;7696684;22;98671;-62
2023/05/29 04:06:22;;;;;;;;;10.00;10.00;;;;;16.13;57.73;98899.44;7697608;22;96139;-62
2023/05/29 04:09:25;;;;;;;;;10.00;9.00;;;;;16.23;57.93;98899.53;7698162;22;96239;-62
2023/05/29 04:12:29;;;;;;;;;12.00;11.00;;;;;16.32;57.45;98897.19;7697003;22;96981;-62
2023/05/29 04:15:33;;;;;;;;;10.00;10.00;;;;;16.43;57.48;98896.19;7696000;22;96197;-62
2023/05/29 04:18:37;;;;;;;;;11.00;9.40;;;;;16.53;57.13;98898.16;7698814;22;96335;-62
2023/05/29 04:21:41;;;;;;;;;13.00;12.40;;;;;16.68;56.99;98906.50;7695983;22;96303;-62
2023/05/29 04:24:45;;;;;;;;;11.00;10.40;;;;;16.85;56.72;98902.56;7671137;22;99770;-62
2023/05/29 04:27:49;;;;;;;;;11.40;10.40;;;;;16.99;56.43;98894.75;7694978;22;96605;-62
2023/05/29 04:30:56;;;;;;;;;9.20;8.00;;;;;17.14;56.00;98905.72;7694339;22;96248;-62
2023/05/29 04:34:04;;;;;;;;;11.00;9.60;;;;;17.24;55.46;98907.69;7695419;22;96334;-62
2023/05/29 04:37:08;;;;;;;;;10.00;8.60;;;;;17.37;55.38;98899.03;7669229;22;98427;-62
2023/05/29 04:40:13;;;;;;;;;11.00;10.00;;;;;17.55;54.57;98900.47;7696541;22;97029;-62
2023/05/29 04:43:19;;;;;;;;;9.80;8.80;;;;;17.78;54.27;98899.22;7696621;22;96174;-62
2023/05/29 04:46:52;;;;;;;;;8.00;7.00;;;;;18.04;54.24;98906.38;7672250;22;97192;-62
2023/05/29 04:49:59;;;;;;;;;8.00;7.00;;;;;18.26;53.44;98908.88;7698368;22;96296;-62
2023/05/29 04:53:03;;;;;;;;;9.40;9.00;;;;;18.43;52.93;98903.97;7670358;22;98296;-62
2023/05/29 04:56:07;;;;;;;;;9.00;9.00;;;;;18.60;52.12;98905.41;7695924;22;96915;-63
2023/05/29 04:59:11;;;;;;;;;10.00;9.00;;;;;18.78;49.89;98909.47;7696336;22;96512;-63
2023/05/29 05:02:14;;;;;;;;;7.00;7.00;;;;;18.77;48.96;98907.81;7669651;22;98317;-62
2023/05/29 05:05:19;;;;;;;;;7.00;7.00;;;;;18.97;48.97;98910.53;7671542;22;96502;-62
2023/05/29 05:08:23;;;;;;;;;9.33;7.00;;;;;19.14;48.91;98914.91;7697536;22;96200;-62
2023/05/29 05:11:27;;;;;;;;;11.00;10.00;;;;;19.28;47.62;98915.94;7695787;22;96619;-62
2023/05/29 05:14:30;;;;;;;;;11.60;11.00;;;;;19.48;47.75;98906.91;7693383;22;96484;-62
2023/05/29 05:17:34;;;;;;;;;13.00;10.00;;;;;19.66;47.07;98909.81;7694668;22;96333;-62
2023/05/29 05:20:39;;;;;;;;;11.00;11.00;;;;;19.79;46.47;98906.47;7694153;22;96530;-62
2023/05/29 05:23:43;;;;;;;;;8.20;7.00;;;;;19.94;45.59;98913.00;7696965;22;96195;-62
2023/05/29 05:27:01;;;;;;;;;6.75;6.25;;;;;20.14;45.26;98907.38;7696300;22;96417;-62
2023/05/29 05:30:05;;;;;;;;;7.00;7.00;;;;;20.23;43.81;98914.72;7695851;22;96326;-62
2023/05/29 05:33:09;;;;;;;;;10.00;9.50;;;;;20.39;43.60;98907.25;7695691;22;96309;-62
2023/05/29 05:36:18;;;;;;;;;5.60;5.00;;;;;20.56;44.19;98915.06;7695187;22;96325;-63
2023/05/29 05:39:22;;;;;;;;;8.40;7.40;;;;;20.78;44.08;98904.47;7668587;22;96339;-62
2023/05/29 05:42:25;;;;;;;;;6.40;6.00;;;;;20.86;42.58;98911.25;7696659;22;97416;-62
2023/05/29 05:45:41;;;;;;;;;7.00;6.00;;;;;20.93;42.33;98911.72;7695599;22;96428;-62
2023/05/29 05:48:45;;;;;;;;;8.60;8.60;;;;;21.02;42.18;98910.00;7697654;22;96965;-63
2023/05/29 05:51:50;;;;;;;;;9.00;8.40;;;;;21.18;42.61;98919.75;7697533;22;96458;-63
2023/05/29 05:54:53;;;;;;;;;9.60;7.60;;;;;21.31;41.73;98918.22;7696012;22;96424;-63
2023/05/29 05:57:58;;;;;;;;;6.75;6.00;;;;;21.50;42.04;98925.41;7696365;22;96684;-63
2023/05/29 06:01:01;;;;;;;;;7.20;6.00;;;;;21.69;42.81;98911.75;7671068;22;98299;-63
2023/05/29 06:04:05;;;;;;;;;9.50;9.50;;;;;22.00;42.02;98928.66;7696828;22;96243;-62
2023/05/29 06:07:10;;;;;;;;;6.60;6.00;;;;;22.17;41.42;98928.97;7697570;22;96354;-63
2023/05/29 06:10:14;;;;;;;;;8.00;7.00;;;;;22.33;40.96;98924.88;7698404;22;96274;-63
2023/05/29 06:13:17;;;;;;;;;7.25;7.00;;;;;22.43;40.22;98927.47;7672634;22;98469;-63
2023/05/29 06:16:26;;;;;;;;;7.00;7.00;;;;;22.55;40.81;98932.53;7672655;22;96596;-63
2023/05/29 06:19:30;;;;;;;;;9.60;8.60;;;;;22.77;40.03;98935.50;7698183;22;96427;-63
2023/05/29 06:22:37;;;;;;;;;9.00;8.00;;;;;22.89;38.81;98933.09;7696775;22;96353;-63
2023/05/29 06:25:41;;;;;;;;;8.00;7.50;;;;;22.98;39.29;98946.16;7697111;22;96578;-63
2023/05/29 06:28:45;;;;;;;;;7.00;6.00;;;;;22.99;37.54;98950.53;7700013;22;96295;-63
2023/05/29 06:31:49;;;;;;;;;8.00;7.00;;;;;23.14;38.92;98944.78;7697339;22;96578;-63
2023/05/29 06:34:54;;;;;;;;;8.40;7.00;;;;;23.18;37.49;98945.78;7698698;22;96777;-63
2023/05/29 06:37:58;;;;;;;;;9.00;9.00;;;;;23.36;38.10;98952.38;7698488;22;96241;-63
2023/05/29 06:41:02;;;;;;;;;10.00;9.00;;;;;23.48;38.07;98959.03;7671483;22;96590;-63
2023/05/29 06:44:05;;;;;;;;;11.00;9.50;;;;;23.60;37.01;98959.31;7698350;22;96360;-62
2023/05/29 06:47:09;;;;;;;;;9.00;8.00;;;;;23.79;37.96;98970.25;7698495;22;96928;-63
2023/05/29 06:50:12;;;;;;;;;7.80;7.80;;;;;23.86;37.51;98970.66;7698857;22;96844;-63
2023/05/29 06:53:17;;;;;;;;;12.00;12.00;;;;;24.03;37.85;98976.38;7698541;22;96987;-63
2023/05/29 06:56:23;;;;;;;;;11.00;11.00;;;;;24.03;37.19;98970.03;7698435;22;96258;-63
2023/05/29 06:59:27;;;;;;;;;12.67;10.67;;;;;24.10;36.64;98979.50;7696941;22;96347;-63
2023/05/29 07:02:31;;;;;;;;;10.20;9.60;;;;;24.13;36.99;98975.34;7670234;22;99896;-63
2023/05/29 07:05:34;;;;;;;;;13.00;12.80;;;;;24.20;36.21;98975.75;7670183;22;98793;-64
2023/05/29 07:08:39;;;;;;;;;12.25;9.50;;;;;24.28;36.78;98974.22;7696668;22;96399;-63
2023/05/29 07:11:42;;;;;;;;;14.00;11.20;;;;;24.23;36.38;98980.66;7696310;22;96353;-63
2023/05/29 07:14:47;;;;;;;;;10.00;9.00;;;;;24.11;36.85;98980.31;7695583;22;96511;-63
2023/05/29 07:17:51;;;;;;;;;15.00;13.00;;;;;24.08;37.23;98984.53;7695990;22;96306;-63
2023/05/29 07:21:01;;;;;;;;;12.50;11.50;;;;;24.28;37.67;98986.06;7695920;22;96546;-63
2023/05/29 07:24:08;;;;;;;;;12.60;11.00;;;;;24.21;36.31;98985.66;7693770;22;96730;-63
2023/05/29 07:27:12;;;;;;;;;13.00;12.33;;;;;24.45;36.95;98991.72;7696780;22;96487;-63
2023/05/29 07:30:16;;;;;;;;;11.60;10.00;;;;;24.65;36.17;98990.44;7699079;22;97784;-63
2023/05/29 07:33:20;;;;;;;;;11.00;11.00;;;;;24.87;36.60;98985.00;7671385;22;97350;-63
2023/05/29 07:36:24;;;;;;;;;11.50;10.25;;;;;24.88;35.42;98991.28;7698317;22;96406;-63
2023/05/29 07:39:29;;;;;;;;;11.67;10.00;;;;;24.62;35.74;98993.00;7695166;22;98483;-63
2023/05/29 07:42:35;;;;;;;;;15.00;12.00;;;;;24.41;35.00;98987.13;7697062;22;96210;-64
2023/05/29 07:45:39;;;;;;;;;12.00;11.00;;;;;24.77;37.20;98998.16;7696775;22;96256;-63
2023/05/29 07:48:42;;;;;;;;;12.00;11.00;;;;;25.10;36.30;98993.25;7697353;22;97014;-63
2023/05/29 07:51:46;;;;;;;;;11.80;11.00;;;;;25.23;35.88;98995.13;7696618;22;97225;-63
2023/05/29 07:54:50;;;;;;;;;9.60;9.60;;;;;25.21;35.47;98994.63;7696726;22;96539;-63
2023/05/29 07:57:54;;;;;;;;;12.75;12.25;;;;;25.34;34.43;98996.50;7697360;22;96326;-63
2023/05/29 08:00:59;;;;;;;;;12.60;11.40;;;;;25.48;34.79;98994.44;7697493;22;96223;-64
2023/05/29 08:04:02;;;;;;;;;12.20;11.80;;;;;25.69;34.83;98986.47;7696622;22;96828;-63
2023/05/29 08:07:07;;;;;;;;;15.00;13.00;;;;;25.90;33.83;98993.06;7669437;22;97215;-63
2023/05/29 08:10:13;;;;;;;;;13.00;12.00;;;;;26.18;34.25;98988.91;7667833;22;96669;-63
2023/05/29 08:13:16;;;;;;;;;11.80;11.80;;;;;26.44;33.91;98988.97;7696154;22;96434;-63
2023/05/29 08:16:22;;;;;;;;;14.00;11.00;;;;;26.73;33.87;98994.69;7697418;22;97560;-63
2023/05/29 08:19:25;;;;;;;;;13.00;12.00;;;;;26.87;32.40;99000.09;7698983;22;96364;-63
2023/05/29 08:22:30;;;;;;;;;13.00;12.00;;;;;27.11;33.08;98981.03;7698858;22;96381;-63
2023/05/29 08:25:35;;;;;;;;;10.00;10.00;;;;;27.49;33.59;98989.44;7698822;22;96201;-63
2023/05/29 08:28:38;;;;;;;;;13.00;10.75;;;;;27.70;31.73;98980.41;7699103;22;97472;-63
2023/05/29 08:31:45;;;;;;;;;11.00;10.00;;;;;27.83;31.46;98982.16;7670729;22;96664;-63
2023/05/29 08:34:49;;;;;;;;;7.60;7.60;;;;;28.05;31.88;98987.44;7699094;22;96220;-63
2023/05/29 08:37:53;;;;;;;;;12.00;11.00;;;;;28.39;31.67;98978.91;7699030;22;96307;-64
2023/05/29 08:40:58;;;;;;;;;9.00;9.00;;;;;28.75;30.10;98991.41;7699622;22;96256;-64
2023/05/29 08:44:04;;;;;;;;;10.00;10.00;;;;;28.93;29.93;98989.31;7699147;22;96795;-63
2023/05/29 08:47:10;;;;;;;;;7.00;6.00;;;;;29.10;29.27;98995.50;7699294;22;96181;-63
2023/05/29 08:50:16;;;;;;;;;8.60;7.60;;;;;29.41;29.07;98999.81;7697950;22;96591;-64
2023/05/29 08:53:20;;;;;;;;;8.60;8.60;;;;;29.63;28.23;98991.84;7699344;22;96372;-63
2023/05/29 08:56:25;;;;;;;;;7.00;7.00;;;;;29.71;27.33;98988.16;7699385;22;96685;-63
2023/05/29 08:59:40;;;;;;;;;9.00;8.00;;;;;29.55;26.62;98992.78;7699521;22;96439;-63
2023/05/29 09:02:44;;;;;;;;;10.00;9.00;;;;;29.33;26.57;98990.41;7697898;22;96514;-63
2023/05/29 09:05:49;;;;;;;;;5.00;5.00;;;;;29.55;28.58;98989.19;7698905;22;96848;-63
2023/05/29 09:08:52;;;;;;;;;8.00;8.00;;;;;29.53;26.61;98983.97;7697070;22;96912;-63
2023/05/29 09:11:58;;;;;;;;;5.00;5.00;;;;;29.81;27.80;98983.31;7671789;22;101250;-63
2023/05/29 09:15:02;;;;;;;;;8.00;7.00;;;;;29.51;26.99;98980.75;7699134;22;96245;-63
2023/05/29 09:18:07;;;;;;;;;9.00;8.00;;;;;29.65;28.05;98986.78;7699324;22;96221;-63
2023/05/29 09:21:11;;;;;;;;;6.00;6.00;;;;;29.95;27.80;98975.50;7698972;22;96360;-63
2023/05/29 09:24:15;;;;;;;;;5.25;5.00;;;;;30.32;27.42;98974.28;7698577;22;96165;-63
2023/05/29 09:27:20;;;;;;;;;7.25;6.00;;;;;30.64;27.77;98966.97;7697610;22;97425;-63
2023/05/29 09:30:39;;;;;;;;;5.60;5.00;;;;;30.62;25.69;98972.06;7698080;22;96876;-63
2023/05/29 09:33:48;;;;;;;;;7.00;6.00;;;;;30.83;27.36;98972.69;7696654;22;96583;-63
2023/05/29 09:36:52;;;;;;;;;4.00;4.00;;;;;31.16;26.45;98968.88;7699334;22;96268;-64
2023/05/29 09:39:56;;;;;;;;;7.25;6.25;;;;;31.32;24.99;98969.72;7696005;22;96382;-63
2023/05/29 09:43:12;;;;;;;;;7.60;7.00;;;;;31.17;25.31;98978.84;7697050;22;96764;-63
2023/05/29 09:46:17;;;;;;;;;7.00;6.00;;;;;30.73;25.59;98962.06;7695981;22;96421;-63
2023/05/29 09:49:23;;;;;;;;;4.00;4.00;;;;;30.46;25.46;98962.81;7697696;22;97159;-63
2023/05/29 09:52:32;;;;;;;;;5.00;5.00;;;;;30.61;25.46;98975.19;7697464;22;96315;-63
2023/05/29 09:55:36;;;;;;;;;5.00;5.00;;;;;30.50;25.38;98967.31;7699117;22;96422;-63
2023/05/29 09:58:45;;;;;;;;;5.00;3.00;;;;;30.55;25.40;98969.88;7697310;22;96190;-63
2023/05/29 10:01:50;;;;;;;;;3.00;3.00;;;;;30.68;24.74;98970.66;7695796;22;96676;-63
2023/05/29 10:04:54;;;;;;;;;4.40;4.40;;;;;30.59;25.73;98975.56;7698182;22;96319;-63
2023/05/29 10:07:58;;;;;;;;;6.00;6.00;;;;;30.55;26.09;98971.84;7697518;22;96252;-63
2023/05/29 10:11:08;;;;;;;;;6.00;5.00;;;;;30.99;26.06;98969.94;7697614;22;96300;-63
2023/05/29 10:14:18;;;;;;;;;6.00;5.60;;;;;31.44;25.21;98974.38;7697209;22;96399;-63
2023/05/29 10:17:27;;;;;;;;;4.00;4.00;;;;;31.75;24.88;98963.31;7670804;22;98963;-63
2023/05/29 10:20:32;;;;;;;;;5.67;4.00;;;;;31.90;23.22;98962.50;7698140;22;96170;-63
2023/05/29 10:23:38;;;;;;;;;6.00;6.00;;;;;31.94;23.71;98971.75;7698320;22;96229;-63
2023/05/29 10:26:47;;;;;;;;;5.00;5.00;;;;;31.85;23.55;98967.53;7697204;22;96641;-63
2023/05/29 10:29:59;;;;;;;;;4.00;4.00;;;;;31.45;22.63;98967.66;7697440;22;96405;-64
2023/05/29 10:33:15;;;;;;;;;5.00;4.00;;;;;31.15;23.61;98950.53;7699411;22;96202;-63
2023/05/29 10:36:23;;;;;;;;;5.00;5.00;;;;;31.12;24.29;98960.41;7699065;22;96680;-63
2023/05/29 10:39:27;;;;;;;;;6.00;5.00;;;;;31.05;24.08;98960.22;7698748;22;96389;-63
2023/05/29 10:42:45;;;;;;;;;4.00;4.00;;;;;31.01;23.97;98964.84;7699338;22;96246;-63
2023/05/29 10:45:54;;;;;;;;;3.80;3.00;;;;;31.09;24.43;98951.94;7699992;22;96281;-63
2023/05/29 10:48:57;;;;;;;;;4.00;3.40;;;;;31.22;24.62;98945.97;7697686;22;98370;-63
2023/05/29 10:52:01;;;;;;;;;5.00;5.00;;;;;31.66;25.24;98945.97;7696670;22;98402;-63
2023/05/29 10:55:05;;;;;;;;;5.50;5.25;;;;;31.94;24.49;98938.28;7697595;22;96303;-63
2023/05/29 10:58:11;;;;;;;;;4.00;4.00;;;;;32.20;23.67;98946.09;7698315;22;97404;-63
2023/05/29 11:01:16;;;;;;;;;5.50;5.50;;;;;32.51;23.48;98948.78;7697687;22;96298;-63
2023/05/29 11:04:29;;;;;;;;;6.40;5.00;;;;;32.76;23.28;98949.34;7699165;22;97579;-63
2023/05/29 11:07:36;;;;;;;;;5.00;5.00;;;;;32.59;22.25;98952.56;7699499;22;96326;-63
2023/05/29 11:10:56;;;;;;;;;6.00;5.40;;;;;31.49;22.05;98941.50;7699661;22;96836;-63
2023/05/29 11:14:04;;;;;;;;;5.00;5.00;;;;;31.51;23.45;98941.16;7699911;22;96197;-63
2023/05/29 11:17:08;;;;;;;;;6.60;6.00;;;;;31.85;23.73;98948.00;7699539;22;96305;-63
2023/05/29 11:20:37;;;;;;;;;7.00;5.00;;;;;32.23;23.65;98942.56;7697412;22;96965;-63
2023/05/29 11:23:43;;;;;;;;;5.00;4.60;;;;;32.50;22.52;98944.38;7685816;22;97379;-63
2023/05/29 11:26:47;;;;;;;;;5.20;5.20;;;;;32.78;22.41;98951.78;7699650;22;96212;-63
2023/05/29 11:29:53;;;;;;;;;4.00;4.00;;;;;32.72;21.90;98942.06;7696882;22;98312;-63
2023/05/29 11:33:02;;;;;;;;;4.00;4.00;;;;;32.67;22.60;98935.63;7699132;22;96633;-63
2023/05/29 11:36:07;;;;;;;;;5.00;5.00;;;;;32.80;22.06;98941.03;7698296;22;96482;-63
2023/05/29 11:39:11;;;;;;;;;4.80;4.80;;;;;33.02;22.96;98940.31;7696247;22;96200;-63
2023/05/29 11:42:14;;;;;;;;;6.00;6.00;;;;;33.16;22.71;98928.63;7696439;22;96720;-63
2023/05/29 11:45:20;;;;;;;;;7.00;5.00;;;;;33.08;21.82;98936.84;7696544;22;96395;-63
2023/05/29 11:48:24;;;;;;;;;5.00;4.60;;;;;32.81;22.34;98939.88;7696506;22;97511;-64
2023/05/29 11:51:28;;;;;;;;;7.00;7.00;;;;;32.71;21.67;98934.88;7698170;22;96650;-63
2023/05/29 11:54:33;;;;;;;;;8.00;8.00;;;;;32.71;21.57;98932.88;7698725;22;97297;-63
2023/05/29 11:57:36;;;;;;;;;8.50;8.50;;;;;32.74;22.11;98929.38;7699260;22;96169;-63
2023/05/29 12:00:41;;;;;;;;;6.40;6.00;;;;;32.90;21.36;98932.88;7670705;22;99692;-63
2023/05/29 12:03:48;;;;;;;;;9.60;9.60;;;;;33.04;22.55;98930.38;7696327;22;96440;-63
2023/05/29 12:06:51;;;;;;;;;8.00;7.40;;;;;32.70;20.75;98919.28;7699185;22;96808;-63
2023/05/29 12:09:57;;;;;;;;;9.00;8.33;;;;;31.98;21.92;98914.06;7698608;22;96471;-64
2023/05/29 12:13:01;;;;;;;;;11.00;9.60;;;;;31.79;22.02;98903.69;7698744;22;96519;-63
2023/05/29 12:16:06;;;;;;;;;7.00;6.00;;;;;32.01;22.08;98904.97;7699114;22;96382;-63
2023/05/29 12:19:11;;;;;;;;;8.40;7.40;;;;;32.41;23.32;98898.31;7699016;22;96320;-63
2023/05/29 12:22:15;;;;;;;;;7.60;7.00;;;;;32.67;22.48;98890.13;7699587;22;96351;-64
2023/05/29 12:25:21;;;;;;;;;7.60;7.20;;;;;33.08;21.76;98906.13;7699103;22;96141;-63
2023/05/29 12:28:24;;;;;;;;;9.00;8.80;;;;;32.86;20.89;98903.28;7698463;22;96207;-63
2023/05/29 12:31:29;;;;;;;;;9.60;9.00;;;;;32.72;21.86;98903.81;7696362;22;98326;-63
2023/05/29 12:34:37;;;;;;;;;7.00;7.00;;;;;32.89;21.22;98897.75;7698165;22;96297;-63
2023/05/29 12:37:48;;;;;;;;;10.40;9.40;;;;;33.08;20.82;98894.94;7698776;22;96351;-63
2023/05/29 12:40:52;;;;;;;;;8.00;7.00;;;;;33.24;21.72;98894.03;7697699;22;96358;-63
2023/05/29 12:43:57;;;;;;;;;8.00;8.00;;;;;33.47;21.32;98890.09;7698757;22;96373;-63
2023/05/29 12:47:00;;;;;;;;;7.00;7.00;;;;;33.57;19.93;98887.84;7698817;22;96368;-63
2023/05/29 12:50:21;;;;;;;;;10.00;9.00;;;;;33.59;20.67;98889.06;7698385;22;96751;-63
2023/05/29 12:53:30;;;;;;;;;6.00;5.75;;;;;33.58;20.78;98886.63;7698743;22;96747;-64
2023/05/29 12:56:34;;;;;;;;;7.00;7.00;;;;;33.59;20.57;98886.28;7698669;22;96327;-64
2023/05/29 12:59:38;;;;;;;;;4.80;4.00;;;;;33.41;20.02;98890.75;7698998;22;96348;-64
2023/05/29 13:02:41;;;;;;;;;5.00;4.00;;;;;32.98;20.81;98883.56;7698630;22;96158;-63
2023/05/29 13:05:46;;;;;;;;;4.50;4.50;;;;;33.07;21.38;98882.16;7697943;22;96327;-64
2023/05/29 13:08:49;;;;;;;;;6.00;6.00;;;;;32.78;21.18;98880.00;7698872;22;97411;-63
2023/05/29 13:11:53;;;;;;;;;5.60;5.60;;;;;32.90;21.60;98884.59;7697161;22;96197;-63
2023/05/29 13:14:57;;;;;;;;;5.00;5.00;;;;;32.64;20.13;98879.72;7699218;22;96157;-63
2023/05/29 13:18:00;;;;;;;;;5.25;5.00;;;;;32.57;22.15;98880.34;7698962;22;96361;-63
2023/05/29 13:21:05;;;;;;;;;5.00;4.50;;;;;32.84;21.97;98878.50;7697070;22;96559;-63
2023/05/29 13:24:09;;;;;;;;;5.00;4.00;;;;;33.06;20.99;98874.94;7699482;22;97358;-63
2023/05/29 13:27:13;;;;;;;;;5.40;5.00;;;;;33.20;20.37;98873.63;7696662;22;96248;-63
2023/05/29 13:30:17;;;;;;;;;4.00;4.00;;;;;33.22;20.92;98866.50;7698688;22;96471;-63
2023/05/29 13:33:20;;;;;;;;;4.60;4.60;;;;;33.17;19.83;98852.81;7697320;22;96049;-64
2023/05/29 13:36:25;;;;;;;;;5.00;4.80;;;;;33.18;20.76;98856.44;7698675;22;96262;-63
2023/05/29 13:39:29;;;;;;;;;4.60;4.00;;;;;33.23;21.21;98848.56;7694560;22;96637;-64
2023/05/29 13:42:32;;;;;;;;;5.75;4.00;;;;;33.24;20.48;98857.72;7696337;22;96276;-64
2023/05/29 13:45:35;;;;;;;;;5.00;5.00;;;;;33.21;20.87;98850.91;7693800;22;96630;-64
2023/05/29 13:48:39;;;;;;;;;6.60;4.60;;;;;33.30;20.11;98848.66;7696551;22;96771;-64
2023/05/29 13:51:46;;;;;;;;;5.75;4.75;;;;;33.19;20.04;98847.66;7697417;22;96228;-64
2023/05/29 13:54:49;;;;;;;;;4.00;4.00;;;;;32.98;19.31;98839.69;7698268;22;96828;-63
2023/05/29 13:57:53;;;;;;;;;5.00;4.00;;;;;32.77;20.32;98841.28;7698417;22;96225;-63
2023/05/29 14:00:56;;;;;;;;;6.50;6.50;;;;;32.71;21.58;98840.75;7696120;22;96311;-63
2023/05/29 14:04:00;;;;;;;;;7.00;6.00;;;;;32.70;21.30;98839.13;7693484;22;98840;-63
2023/05/29 14:07:05;;;;;;;;;4.50;4.50;;;;;32.67;21.08;98837.09;7697094;22;96446;-63
2023/05/29 14:10:09;;;;;;;;;6.00;6.00;;;;;32.70;21.77;98836.34;7698230;22;96799;-63
2023/05/29 14:13:15;;;;;;;;;7.67;6.67;;;;;32.62;21.84;98843.75;7700478;22;96304;-63
2023/05/29 14:16:18;;;;;;;;;5.00;5.00;;;;;32.52;21.27;98843.53;7700045;22;96223;-63
2023/05/29 14:19:23;;;;;;;;;8.40;7.00;;;;;32.26;20.87;98830.25;7700411;22;96381;-63
2023/05/29 14:22:27;;;;;;;;;7.00;6.00;;;;;32.30;22.18;98833.94;7700445;22;96312;-63
2023/05/29 14:25:31;;;;;;;;;5.60;5.60;;;;;32.26;21.58;98830.25;7699945;22;96370;-63
2023/05/29 14:28:35;;;;;;;;;6.00;6.00;;;;;32.11;22.17;98826.34;7699976;22;96579;-63